sensor_id;sensor_type;location;lat;lon;timestamp;P1;durP1;ratioP1;P2;durP2;ratioP2
15295;SDS011;7749;49.964;7.890;2023-03-04T00:00:07;109.50;;;61.40;;
15295;SDS011;7749;49.964;7.890;2023-03-04T00:02:36;107.77;;;61.50;;
15295;SDS011;7749;49.964;7.890;2023-03-04T00:05:04;105.33;;;63.60;;
15295;SDS011;7749;49.964;7.890;2023-03-04T00:07:32;108.43;;;66.57;;
15295;SDS011;7749;49.964;7.890;2023-03-04T00:09:59;115.07;;;64.70;;
15295;SDS011;7749;49.964;7.890;2023-03-04T00:12:27;105.03;;;64.87;;
15295;SDS011;7749;49.964;7.890;2023-03-04T00:14:55;104.50;;;66.20;;
15295;SDS011;7749;49.964;7.890;2023-03-04T00:17:23;110.03;;;68.03;;
15295;SDS011;7749;49.964;7.890;2023-03-04T00:19:53;113.50;;;67.60;;
15295;SDS011;7749;49.964;7.890;2023-03-04T00:22:21;107.13;;;61.63;;
15295;SDS011;7749;49.964;7.890;2023-03-04T00:24:49;107.77;;;65.67;;
15295;SDS011;7749;49.964;7.890;2023-03-04T00:27:17;107.30;;;68.57;;
15295;SDS011;7749;49.964;7.890;2023-03-04T00:29:44;106.27;;;66.50;;
15295;SDS011;7749;49.964;7.890;2023-03-04T00:32:12;103.17;;;65.30;;
15295;SDS011;7749;49.964;7.890;2023-03-04T00:34:42;103.10;;;61.07;;
15295;SDS011;7749;49.964;7.890;2023-03-04T00:37:10;103.87;;;64.27;;
15295;SDS011;7749;49.964;7.890;2023-03-04T00:39:38;108.77;;;65.47;;
15295;SDS011;7749;49.964;7.890;2023-03-04T00:42:06;103.70;;;65.03;;
15295;SDS011;7749;49.964;7.890;2023-03-04T00:44:33;109.37;;;67.17;;
15295;SDS011;7749;49.964;7.890;2023-03-04T00:47:01;104.37;;;64.80;;
15295;SDS011;7749;49.964;7.890;2023-03-04T00:49:32;111.87;;;63.73;;
15295;SDS011;7749;49.964;7.890;2023-03-04T00:52:00;105.37;;;59.80;;
15295;SDS011;7749;49.964;7.890;2023-03-04T00:54:27;108.00;;;60.87;;
15295;SDS011;7749;49.964;7.890;2023-03-04T00:56:56;113.67;;;64.47;;
15295;SDS011;7749;49.964;7.890;2023-03-04T00:59:29;114.47;;;65.60;;
15295;SDS011;7749;49.964;7.890;2023-03-04T01:01:57;113.70;;;62.63;;
15295;SDS011;7749;49.964;7.890;2023-03-04T01:04:25;114.43;;;63.47;;
15295;SDS011;7749;49.964;7.890;2023-03-04T01:06:53;110.80;;;65.50;;
15295;SDS011;7749;49.964;7.890;2023-03-04T01:09:21;105.03;;;66.40;;
15295;SDS011;7749;49.964;7.890;2023-03-04T01:11:48;109.23;;;65.33;;
15295;SDS011;7749;49.964;7.890;2023-03-04T01:14:21;109.70;;;67.13;;
15295;SDS011;7749;49.964;7.890;2023-03-04T01:16:49;113.63;;;70.40;;
15295;SDS011;7749;49.964;7.890;2023-03-04T01:19:17;114.70;;;69.13;;
15295;SDS011;7749;49.964;7.890;2023-03-04T01:21:45;115.07;;;67.37;;
15295;SDS011;7749;49.964;7.890;2023-03-04T01:24:13;112.97;;;65.37;;
15295;SDS011;7749;49.964;7.890;2023-03-04T01:26:41;112.13;;;65.07;;
15295;SDS011;7749;49.964;7.890;2023-03-04T01:29:09;113.57;;;68.17;;
15295;SDS011;7749;49.964;7.890;2023-03-04T01:31:37;113.60;;;68.47;;
15295;SDS011;7749;49.964;7.890;2023-03-04T01:34:04;113.93;;;65.27;;
15295;SDS011;7749;49.964;7.890;2023-03-04T01:36:32;111.80;;;64.00;;
15295;SDS011;7749;49.964;7.890;2023-03-04T01:39:00;111.13;;;69.37;;
15295;SDS011;7749;49.964;7.890;2023-03-04T01:41:29;113.60;;;63.63;;
15295;SDS011;7749;49.964;7.890;2023-03-04T01:43:57;114.20;;;65.07;;
15295;SDS011;7749;49.964;7.890;2023-03-04T01:46:28;111.33;;;64.97;;
15295;SDS011;7749;49.964;7.890;2023-03-04T01:48:57;115.73;;;63.97;;
15295;SDS011;7749;49.964;7.890;2023-03-04T01:51:26;113.30;;;63.20;;
15295;SDS011;7749;49.964;7.890;2023-03-04T01:53:57;114.63;;;65.70;;
15295;SDS011;7749;49.964;7.890;2023-03-04T01:56:27;110.27;;;64.50;;
15295;SDS011;7749;49.964;7.890;2023-03-04T02:01:47;107.83;;;68.80;;
15295;SDS011;7749;49.964;7.890;2023-03-04T02:04:17;110.03;;;65.50;;
15295;SDS011;7749;49.964;7.890;2023-03-04T02:06:48;115.03;;;64.83;;
15295;SDS011;7749;49.964;7.890;2023-03-04T02:09:17;117.27;;;66.30;;
15295;SDS011;7749;49.964;7.890;2023-03-04T02:11:46;118.37;;;68.57;;
15295;SDS011;7749;49.964;7.890;2023-03-04T02:14:15;115.07;;;70.63;;
15295;SDS011;7749;49.964;7.890;2023-03-04T02:16:44;118.10;;;71.00;;
15295;SDS011;7749;49.964;7.890;2023-03-04T02:19:22;107.87;;;66.50;;
15295;SDS011;7749;49.964;7.890;2023-03-04T02:22:17;104.63;;;65.17;;
15295;SDS011;7749;49.964;7.890;2023-03-04T02:24:46;112.73;;;63.40;;
15295;SDS011;7749;49.964;7.890;2023-03-04T02:27:22;107.07;;;59.97;;
15295;SDS011;7749;49.964;7.890;2023-03-04T02:29:52;109.63;;;60.43;;
15295;SDS011;7749;49.964;7.890;2023-03-04T02:32:20;105.50;;;64.63;;
15295;SDS011;7749;49.964;7.890;2023-03-04T02:34:48;104.50;;;59.40;;
15295;SDS011;7749;49.964;7.890;2023-03-04T02:37:17;108.43;;;60.03;;
15295;SDS011;7749;49.964;7.890;2023-03-04T02:39:46;104.23;;;57.97;;
15295;SDS011;7749;49.964;7.890;2023-03-04T02:42:15;104.87;;;58.03;;
15295;SDS011;7749;49.964;7.890;2023-03-04T02:44:44;97.93;;;62.63;;
15295;SDS011;7749;49.964;7.890;2023-03-04T02:47:16;101.90;;;62.90;;
15295;SDS011;7749;49.964;7.890;2023-03-04T02:49:44;105.73;;;63.80;;
15295;SDS011;7749;49.964;7.890;2023-03-04T02:52:16;104.40;;;59.37;;
15295;SDS011;7749;49.964;7.890;2023-03-04T02:54:46;108.23;;;60.30;;
15295;SDS011;7749;49.964;7.890;2023-03-04T02:57:14;110.00;;;59.03;;
15295;SDS011;7749;49.964;7.890;2023-03-04T02:59:42;107.80;;;58.47;;
15295;SDS011;7749;49.964;7.890;2023-03-04T03:02:12;102.63;;;57.60;;
15295;SDS011;7749;49.964;7.890;2023-03-04T03:04:40;102.60;;;58.30;;
15295;SDS011;7749;49.964;7.890;2023-03-04T03:07:08;104.20;;;56.63;;
15295;SDS011;7749;49.964;7.890;2023-03-04T03:09:35;102.17;;;60.57;;
15295;SDS011;7749;49.964;7.890;2023-03-04T03:12:03;101.90;;;58.57;;
15295;SDS011;7749;49.964;7.890;2023-03-04T03:14:32;103.00;;;62.87;;
15295;SDS011;7749;49.964;7.890;2023-03-04T03:17:02;107.18;;;63.55;;
15295;SDS011;7749;49.964;7.890;2023-03-04T03:19:30;107.80;;;61.77;;
15295;SDS011;7749;49.964;7.890;2023-03-04T03:21:57;108.97;;;60.23;;
15295;SDS011;7749;49.964;7.890;2023-03-04T03:24:28;110.87;;;58.17;;
15295;SDS011;7749;49.964;7.890;2023-03-04T03:26:55;106.93;;;58.93;;
15295;SDS011;7749;49.964;7.890;2023-03-04T03:29:23;107.23;;;59.00;;
15295;SDS011;7749;49.964;7.890;2023-03-04T03:31:50;111.13;;;60.20;;
15295;SDS011;7749;49.964;7.890;2023-03-04T03:34:18;104.37;;;57.97;;
15295;SDS011;7749;49.964;7.890;2023-03-04T03:36:46;92.43;;;59.03;;
15295;SDS011;7749;49.964;7.890;2023-03-04T03:39:13;89.90;;;51.50;;
15295;SDS011;7749;49.964;7.890;2023-03-04T03:41:41;81.47;;;48.20;;
15295;SDS011;7749;49.964;7.890;2023-03-04T03:44:12;79.17;;;45.77;;
15295;SDS011;7749;49.964;7.890;2023-03-04T03:46:40;72.83;;;49.90;;
15295;SDS011;7749;49.964;7.890;2023-03-04T03:49:07;71.77;;;48.77;;
15295;SDS011;7749;49.964;7.890;2023-03-04T03:51:35;74.53;;;46.97;;
15295;SDS011;7749;49.964;7.890;2023-03-04T03:54:05;71.97;;;48.30;;
15295;SDS011;7749;49.964;7.890;2023-03-04T03:56:33;75.87;;;46.87;;
15295;SDS011;7749;49.964;7.890;2023-03-04T03:59:01;74.53;;;47.03;;
15295;SDS011;7749;49.964;7.890;2023-03-04T04:01:28;73.47;;;49.37;;
15295;SDS011;7749;49.964;7.890;2023-03-04T04:03:57;72.67;;;49.30;;
15295;SDS011;7749;49.964;7.890;2023-03-04T04:06:25;73.43;;;49.40;;
15295;SDS011;7749;49.964;7.890;2023-03-04T04:08:53;74.87;;;48.57;;
15295;SDS011;7749;49.964;7.890;2023-03-04T04:11:21;72.97;;;48.00;;
15295;SDS011;7749;49.964;7.890;2023-03-04T04:13:48;78.17;;;48.87;;
15295;SDS011;7749;49.964;7.890;2023-03-04T04:16:16;70.63;;;45.90;;
15295;SDS011;7749;49.964;7.890;2023-03-04T04:18:44;70.93;;;47.13;;
15295;SDS011;7749;49.964;7.890;2023-03-04T04:21:11;72.23;;;47.90;;
15295;SDS011;7749;49.964;7.890;2023-03-04T04:23:42;72.10;;;46.73;;
15295;SDS011;7749;49.964;7.890;2023-03-04T04:26:12;75.67;;;47.97;;
15295;SDS011;7749;49.964;7.890;2023-03-04T04:28:39;72.07;;;43.50;;
15295;SDS011;7749;49.964;7.890;2023-03-04T04:31:07;73.37;;;44.23;;
15295;SDS011;7749;49.964;7.890;2023-03-04T04:33:35;67.50;;;43.07;;
15295;SDS011;7749;49.964;7.890;2023-03-04T04:36:03;66.63;;;42.93;;
15295;SDS011;7749;49.964;7.890;2023-03-04T04:38:31;65.50;;;41.73;;
15295;SDS011;7749;49.964;7.890;2023-03-04T04:40:59;68.83;;;43.37;;
15295;SDS011;7749;49.964;7.890;2023-03-04T04:43:27;64.63;;;44.30;;
15295;SDS011;7749;49.964;7.890;2023-03-04T04:45:58;67.43;;;46.17;;
15295;SDS011;7749;49.964;7.890;2023-03-04T04:48:26;67.07;;;42.97;;
15295;SDS011;7749;49.964;7.890;2023-03-04T04:50:54;68.50;;;41.57;;
15295;SDS011;7749;49.964;7.890;2023-03-04T04:53:22;74.10;;;48.83;;
15295;SDS011;7749;49.964;7.890;2023-03-04T04:55:50;69.40;;;42.87;;
15295;SDS011;7749;49.964;7.890;2023-03-04T04:58:17;67.00;;;42.80;;
15295;SDS011;7749;49.964;7.890;2023-03-04T05:00:45;65.90;;;41.10;;
15295;SDS011;7749;49.964;7.890;2023-03-04T05:03:13;68.57;;;41.60;;
15295;SDS011;7749;49.964;7.890;2023-03-04T05:05:43;69.63;;;43.67;;
15295;SDS011;7749;49.964;7.890;2023-03-04T05:08:11;69.50;;;40.97;;
15295;SDS011;7749;49.964;7.890;2023-03-04T05:10:38;70.73;;;43.30;;
15295;SDS011;7749;49.964;7.890;2023-03-04T05:13:06;67.17;;;41.50;;
15295;SDS011;7749;49.964;7.890;2023-03-04T05:15:33;70.47;;;44.03;;
15295;SDS011;7749;49.964;7.890;2023-03-04T05:18:03;71.50;;;45.47;;
15295;SDS011;7749;49.964;7.890;2023-03-04T05:20:31;69.50;;;42.13;;
15295;SDS011;7749;49.964;7.890;2023-03-04T05:22:58;67.90;;;43.07;;
15295;SDS011;7749;49.964;7.890;2023-03-04T05:25:26;67.90;;;43.00;;
15295;SDS011;7749;49.964;7.890;2023-03-04T05:27:55;75.00;;;46.53;;
15295;SDS011;7749;49.964;7.890;2023-03-04T05:30:23;68.23;;;45.57;;
15295;SDS011;7749;49.964;7.890;2023-03-04T05:32:53;72.27;;;45.50;;
15295;SDS011;7749;49.964;7.890;2023-03-04T05:35:21;64.10;;;41.07;;
15295;SDS011;7749;49.964;7.890;2023-03-04T05:37:49;74.50;;;45.80;;
15295;SDS011;7749;49.964;7.890;2023-03-04T05:40:16;71.20;;;43.03;;
15295;SDS011;7749;49.964;7.890;2023-03-04T05:42:44;96.67;;;54.93;;
15295;SDS011;7749;49.964;7.890;2023-03-04T05:45:11;77.17;;;47.93;;
15295;SDS011;7749;49.964;7.890;2023-03-04T05:47:42;70.03;;;43.43;;
15295;SDS011;7749;49.964;7.890;2023-03-04T05:50:10;69.13;;;43.13;;
15295;SDS011;7749;49.964;7.890;2023-03-04T05:52:40;69.57;;;45.30;;
15295;SDS011;7749;49.964;7.890;2023-03-04T05:55:09;81.23;;;48.87;;
15295;SDS011;7749;49.964;7.890;2023-03-04T05:57:37;82.83;;;55.23;;
15295;SDS011;7749;49.964;7.890;2023-03-04T06:00:05;75.57;;;45.97;;
15295;SDS011;7749;49.964;7.890;2023-03-04T06:02:36;75.43;;;52.33;;
15295;SDS011;7749;49.964;7.890;2023-03-04T06:05:08;84.70;;;49.37;;
15295;SDS011;7749;49.964;7.890;2023-03-04T06:07:37;88.00;;;52.27;;
15295;SDS011;7749;49.964;7.890;2023-03-04T06:10:05;74.67;;;46.00;;
15295;SDS011;7749;49.964;7.890;2023-03-04T06:12:33;75.03;;;49.57;;
15295;SDS011;7749;49.964;7.890;2023-03-04T06:15:01;72.10;;;45.73;;
15295;SDS011;7749;49.964;7.890;2023-03-04T06:17:29;77.17;;;46.00;;
15295;SDS011;7749;49.964;7.890;2023-03-04T06:19:57;74.80;;;43.80;;
15295;SDS011;7749;49.964;7.890;2023-03-04T06:22:24;71.70;;;42.70;;
15295;SDS011;7749;49.964;7.890;2023-03-04T06:24:52;75.00;;;46.00;;
15295;SDS011;7749;49.964;7.890;2023-03-04T06:27:23;85.00;;;50.53;;
15295;SDS011;7749;49.964;7.890;2023-03-04T06:29:50;76.33;;;47.40;;
15295;SDS011;7749;49.964;7.890;2023-03-04T06:32:22;83.97;;;50.83;;
15295;SDS011;7749;49.964;7.890;2023-03-04T06:34:53;77.40;;;47.27;;
15295;SDS011;7749;49.964;7.890;2023-03-04T06:37:20;80.40;;;50.10;;
15295;SDS011;7749;49.964;7.890;2023-03-04T06:39:48;75.27;;;47.97;;
15295;SDS011;7749;49.964;7.890;2023-03-04T06:42:18;76.43;;;46.17;;
15295;SDS011;7749;49.964;7.890;2023-03-04T06:44:47;72.63;;;43.00;;
15295;SDS011;7749;49.964;7.890;2023-03-04T06:47:16;73.20;;;44.43;;
15295;SDS011;7749;49.964;7.890;2023-03-04T06:49:45;75.40;;;43.53;;
15295;SDS011;7749;49.964;7.890;2023-03-04T06:52:13;69.83;;;41.93;;
15295;SDS011;7749;49.964;7.890;2023-03-04T06:54:43;68.90;;;40.07;;
15295;SDS011;7749;49.964;7.890;2023-03-04T06:57:11;73.30;;;42.47;;
15295;SDS011;7749;49.964;7.890;2023-03-04T06:59:39;75.80;;;42.33;;
15295;SDS011;7749;49.964;7.890;2023-03-04T07:02:09;66.87;;;40.23;;
15295;SDS011;7749;49.964;7.890;2023-03-04T07:04:38;65.57;;;39.93;;
15295;SDS011;7749;49.964;7.890;2023-03-04T07:07:06;64.50;;;38.93;;
15295;SDS011;7749;49.964;7.890;2023-03-04T07:09:34;67.03;;;39.90;;
15295;SDS011;7749;49.964;7.890;2023-03-04T07:12:02;66.07;;;37.33;;
15295;SDS011;7749;49.964;7.890;2023-03-04T07:14:29;61.87;;;37.70;;
15295;SDS011;7749;49.964;7.890;2023-03-04T07:16:57;59.63;;;34.63;;
15295;SDS011;7749;49.964;7.890;2023-03-04T07:19:25;59.17;;;34.50;;
15295;SDS011;7749;49.964;7.890;2023-03-04T07:21:52;53.73;;;33.33;;
15295;SDS011;7749;49.964;7.890;2023-03-04T07:24:20;51.80;;;31.90;;
15295;SDS011;7749;49.964;7.890;2023-03-04T07:26:53;58.40;;;32.90;;
15295;SDS011;7749;49.964;7.890;2023-03-04T07:29:21;59.43;;;32.80;;
15295;SDS011;7749;49.964;7.890;2023-03-04T07:31:49;56.40;;;32.80;;
15295;SDS011;7749;49.964;7.890;2023-03-04T07:34:20;55.30;;;32.33;;
15295;SDS011;7749;49.964;7.890;2023-03-04T07:36:54;53.57;;;30.30;;
15295;SDS011;7749;49.964;7.890;2023-03-04T07:39:21;47.00;;;28.90;;
15295;SDS011;7749;49.964;7.890;2023-03-04T07:41:49;52.43;;;34.40;;
15295;SDS011;7749;49.964;7.890;2023-03-04T07:44:16;48.60;;;28.43;;
15295;SDS011;7749;49.964;7.890;2023-03-04T07:46:47;54.20;;;30.20;;
15295;SDS011;7749;49.964;7.890;2023-03-04T07:49:18;57.27;;;31.10;;
15295;SDS011;7749;49.964;7.890;2023-03-04T07:51:45;58.67;;;31.20;;
15295;SDS011;7749;49.964;7.890;2023-03-04T07:54:13;56.30;;;32.33;;
15295;SDS011;7749;49.964;7.890;2023-03-04T07:56:41;55.97;;;29.80;;
15295;SDS011;7749;49.964;7.890;2023-03-04T07:59:09;57.03;;;31.40;;
15295;SDS011;7749;49.964;7.890;2023-03-04T08:01:42;50.73;;;28.60;;
15295;SDS011;7749;49.964;7.890;2023-03-04T08:04:11;54.53;;;32.17;;
15295;SDS011;7749;49.964;7.890;2023-03-04T08:06:40;49.37;;;29.40;;
15295;SDS011;7749;49.964;7.890;2023-03-04T08:09:09;53.23;;;29.73;;
15295;SDS011;7749;49.964;7.890;2023-03-04T08:11:40;47.57;;;28.13;;
15295;SDS011;7749;49.964;7.890;2023-03-04T08:14:09;46.90;;;29.27;;
15295;SDS011;7749;49.964;7.890;2023-03-04T08:16:39;59.77;;;28.27;;
15295;SDS011;7749;49.964;7.890;2023-03-04T08:19:09;41.37;;;23.97;;
15295;SDS011;7749;49.964;7.890;2023-03-04T08:21:38;52.70;;;26.63;;
15295;SDS011;7749;49.964;7.890;2023-03-04T08:24:09;41.73;;;25.93;;
15295;SDS011;7749;49.964;7.890;2023-03-04T08:26:38;55.07;;;26.83;;
15295;SDS011;7749;49.964;7.890;2023-03-04T08:29:09;52.03;;;26.83;;
15295;SDS011;7749;49.964;7.890;2023-03-04T08:31:39;54.17;;;26.57;;
15295;SDS011;7749;49.964;7.890;2023-03-04T08:34:07;59.97;;;27.80;;
15295;SDS011;7749;49.964;7.890;2023-03-04T08:36:36;43.90;;;24.87;;
15295;SDS011;7749;49.964;7.890;2023-03-04T08:39:08;47.27;;;23.47;;
15295;SDS011;7749;49.964;7.890;2023-03-04T08:41:37;47.73;;;25.20;;
15295;SDS011;7749;49.964;7.890;2023-03-04T08:44:05;45.13;;;22.70;;
15295;SDS011;7749;49.964;7.890;2023-03-04T08:46:36;50.50;;;24.80;;
15295;SDS011;7749;49.964;7.890;2023-03-04T08:49:14;46.43;;;23.80;;
15295;SDS011;7749;49.964;7.890;2023-03-04T08:51:42;49.40;;;23.53;;
15295;SDS011;7749;49.964;7.890;2023-03-04T08:54:11;53.30;;;25.77;;
15295;SDS011;7749;49.964;7.890;2023-03-04T08:56:39;43.00;;;22.77;;
15295;SDS011;7749;49.964;7.890;2023-03-04T08:59:07;46.93;;;22.30;;
15295;SDS011;7749;49.964;7.890;2023-03-04T09:01:35;54.10;;;24.27;;
15295;SDS011;7749;49.964;7.890;2023-03-04T09:04:03;47.30;;;22.60;;
15295;SDS011;7749;49.964;7.890;2023-03-04T09:06:33;47.40;;;23.40;;
15295;SDS011;7749;49.964;7.890;2023-03-04T09:09:01;44.93;;;21.80;;
15295;SDS011;7749;49.964;7.890;2023-03-04T09:11:35;43.10;;;22.57;;
15295;SDS011;7749;49.964;7.890;2023-03-04T09:14:02;35.30;;;21.23;;
15295;SDS011;7749;49.964;7.890;2023-03-04T09:16:30;42.67;;;21.53;;
15295;SDS011;7749;49.964;7.890;2023-03-04T09:18:58;43.13;;;20.53;;
15295;SDS011;7749;49.964;7.890;2023-03-04T09:21:30;37.10;;;20.13;;
15295;SDS011;7749;49.964;7.890;2023-03-04T09:23:58;38.13;;;20.80;;
15295;SDS011;7749;49.964;7.890;2023-03-04T09:26:27;34.63;;;19.57;;
15295;SDS011;7749;49.964;7.890;2023-03-04T09:28:57;36.73;;;19.07;;
15295;SDS011;7749;49.964;7.890;2023-03-04T09:31:27;34.90;;;19.30;;
15295;SDS011;7749;49.964;7.890;2023-03-04T09:33:56;34.87;;;19.23;;
15295;SDS011;7749;49.964;7.890;2023-03-04T09:36:26;30.93;;;17.77;;
15295;SDS011;7749;49.964;7.890;2023-03-04T09:38:57;40.53;;;17.30;;
15295;SDS011;7749;49.964;7.890;2023-03-04T09:41:35;31.83;;;17.73;;
15295;SDS011;7749;49.964;7.890;2023-03-04T09:44:21;42.33;;;17.67;;
15295;SDS011;7749;49.964;7.890;2023-03-04T09:47:11;38.20;;;17.80;;
15295;SDS011;7749;49.964;7.890;2023-03-04T09:49:47;30.60;;;15.70;;
15295;SDS011;7749;49.964;7.890;2023-03-04T09:55:02;32.17;;;16.57;;
15295;SDS011;7749;49.964;7.890;2023-03-04T10:12:04;33.13;;;16.23;;
15295;SDS011;7749;49.964;7.890;2023-03-04T10:16:39;28.43;;;14.00;;
15295;SDS011;7749;49.964;7.890;2023-03-04T10:19:25;30.90;;;14.77;;
15295;SDS011;7749;49.964;7.890;2023-03-04T10:21:58;27.40;;;13.97;;
15295;SDS011;7749;49.964;7.890;2023-03-04T10:24:27;23.63;;;13.03;;
15295;SDS011;7749;49.964;7.890;2023-03-04T10:26:58;24.50;;;12.13;;
15295;SDS011;7749;49.964;7.890;2023-03-04T10:29:33;29.00;;;13.73;;
15295;SDS011;7749;49.964;7.890;2023-03-04T10:32:00;30.23;;;14.20;;
15295;SDS011;7749;49.964;7.890;2023-03-04T10:34:28;26.77;;;13.47;;
15295;SDS011;7749;49.964;7.890;2023-03-04T10:37:03;34.13;;;13.43;;
15295;SDS011;7749;49.964;7.890;2023-03-04T10:39:38;29.80;;;14.20;;
15295;SDS011;7749;49.964;7.890;2023-03-04T10:44:52;27.23;;;13.23;;
15295;SDS011;7749;49.964;7.890;2023-03-04T10:47:24;33.40;;;14.10;;
15295;SDS011;7749;49.964;7.890;2023-03-04T10:49:58;27.60;;;13.33;;
15295;SDS011;7749;49.964;7.890;2023-03-04T10:52:28;32.13;;;13.40;;
15295;SDS011;7749;49.964;7.890;2023-03-04T10:55:04;25.73;;;13.73;;
15295;SDS011;7749;49.964;7.890;2023-03-04T10:57:46;28.60;;;13.27;;
15295;SDS011;7749;49.964;7.890;2023-03-04T11:02:48;29.53;;;12.93;;
15295;SDS011;7749;49.964;7.890;2023-03-04T11:05:18;23.27;;;12.70;;
15295;SDS011;7749;49.964;7.890;2023-03-04T11:07:58;22.60;;;11.17;;
15295;SDS011;7749;49.964;7.890;2023-03-04T11:18:30;22.17;;;10.83;;
15295;SDS011;7749;49.964;7.890;2023-03-04T11:21:26;26.23;;;12.03;;
15295;SDS011;7749;49.964;7.890;2023-03-04T11:23:58;21.13;;;11.23;;
15295;SDS011;7749;49.964;7.890;2023-03-04T11:26:37;22.20;;;10.93;;
15295;SDS011;7749;49.964;7.890;2023-03-04T11:29:12;17.40;;;9.83;;
15295;SDS011;7749;49.964;7.890;2023-03-04T11:32:06;19.60;;;9.93;;
15295;SDS011;7749;49.964;7.890;2023-03-04T11:35:52;19.03;;;9.73;;
15295;SDS011;7749;49.964;7.890;2023-03-04T11:40:35;23.17;;;10.50;;
15295;SDS011;7749;49.964;7.890;2023-03-04T11:43:18;17.50;;;9.57;;
15295;SDS011;7749;49.964;7.890;2023-03-04T12:06:27;21.67;;;10.87;;
15295;SDS011;7749;49.964;7.890;2023-03-04T12:39:09;24.07;;;9.67;;
15295;SDS011;7749;49.964;7.890;2023-03-04T12:41:56;20.00;;;8.90;;
15295;SDS011;7749;49.964;7.890;2023-03-04T12:44:46;20.53;;;9.63;;
15295;SDS011;7749;49.964;7.890;2023-03-04T12:47:39;15.30;;;8.63;;
15295;SDS011;7749;49.964;7.890;2023-03-04T12:50:35;18.90;;;8.67;;
15295;SDS011;7749;49.964;7.890;2023-03-04T12:53:11;23.87;;;10.03;;
15295;SDS011;7749;49.964;7.890;2023-03-04T12:55:46;15.77;;;8.77;;
15295;SDS011;7749;49.964;7.890;2023-03-04T12:58:17;14.27;;;8.93;;
15295;SDS011;7749;49.964;7.890;2023-03-04T13:03:36;15.37;;;8.33;;
15295;SDS011;7749;49.964;7.890;2023-03-04T13:06:28;15.43;;;9.40;;
15295;SDS011;7749;49.964;7.890;2023-03-04T13:12:13;18.37;;;8.57;;
15295;SDS011;7749;49.964;7.890;2023-03-04T13:20:21;14.30;;;8.40;;
15295;SDS011;7749;49.964;7.890;2023-03-04T13:25:42;11.83;;;8.00;;
15295;SDS011;7749;49.964;7.890;2023-03-04T13:28:17;17.27;;;9.33;;
15295;SDS011;7749;49.964;7.890;2023-03-04T13:33:44;16.93;;;8.20;;
15295;SDS011;7749;49.964;7.890;2023-03-04T13:36:53;13.63;;;8.53;;
15295;SDS011;7749;49.964;7.890;2023-03-04T13:39:24;15.10;;;8.73;;
15295;SDS011;7749;49.964;7.890;2023-03-04T13:41:54;13.57;;;8.60;;
15295;SDS011;7749;49.964;7.890;2023-03-04T13:47:25;15.97;;;8.90;;
15295;SDS011;7749;49.964;7.890;2023-03-04T13:52:53;14.23;;;7.70;;
15295;SDS011;7749;49.964;7.890;2023-03-04T13:55:39;11.47;;;7.53;;
15295;SDS011;7749;49.964;7.890;2023-03-04T13:58:12;15.37;;;9.20;;
15295;SDS011;7749;49.964;7.890;2023-03-04T14:00:48;12.27;;;7.10;;
15295;SDS011;7749;49.964;7.890;2023-03-04T14:03:30;12.93;;;7.77;;
15295;SDS011;7749;49.964;7.890;2023-03-04T14:06:07;13.47;;;8.40;;
15295;SDS011;7749;49.964;7.890;2023-03-04T14:08:54;17.40;;;10.38;;
15295;SDS011;7749;49.964;7.890;2023-03-04T14:13:55;13.20;;;7.17;;
15295;SDS011;7749;49.964;7.890;2023-03-04T14:16:26;11.20;;;7.40;;
15295;SDS011;7749;49.964;7.890;2023-03-04T14:18:55;16.77;;;7.13;;
15295;SDS011;7749;49.964;7.890;2023-03-04T14:21:24;10.73;;;6.00;;
15295;SDS011;7749;49.964;7.890;2023-03-04T14:23:59;9.60;;;6.53;;
15295;SDS011;7749;49.964;7.890;2023-03-04T14:26:28;13.07;;;6.00;;
15295;SDS011;7749;49.964;7.890;2023-03-04T14:28:57;10.13;;;5.87;;
15295;SDS011;7749;49.964;7.890;2023-03-04T14:31:26;10.07;;;6.17;;
15295;SDS011;7749;49.964;7.890;2023-03-04T14:33:58;8.10;;;5.43;;
15295;SDS011;7749;49.964;7.890;2023-03-04T14:36:34;11.27;;;5.60;;
15295;SDS011;7749;49.964;7.890;2023-03-04T14:42:07;9.90;;;5.77;;
15295;SDS011;7749;49.964;7.890;2023-03-04T14:44:38;13.83;;;6.40;;
15295;SDS011;7749;49.964;7.890;2023-03-04T14:47:22;9.80;;;5.37;;
15295;SDS011;7749;49.964;7.890;2023-03-04T14:49:56;9.27;;;6.17;;
15295;SDS011;7749;49.964;7.890;2023-03-04T14:55:14;10.03;;;5.33;;
15295;SDS011;7749;49.964;7.890;2023-03-04T14:57:46;8.50;;;5.77;;
15295;SDS011;7749;49.964;7.890;2023-03-04T15:00:35;8.13;;;5.80;;
15295;SDS011;7749;49.964;7.890;2023-03-04T15:05:48;13.13;;;6.40;;
15295;SDS011;7749;49.964;7.890;2023-03-04T15:08:35;7.30;;;5.40;;
15295;SDS011;7749;49.964;7.890;2023-03-04T15:11:04;12.67;;;6.53;;
15295;SDS011;7749;49.964;7.890;2023-03-04T15:13:37;8.53;;;5.47;;
15295;SDS011;7749;49.964;7.890;2023-03-04T15:16:05;10.03;;;6.07;;
15295;SDS011;7749;49.964;7.890;2023-03-04T15:18:34;8.43;;;6.30;;
15295;SDS011;7749;49.964;7.890;2023-03-04T15:23:46;8.87;;;6.43;;
15295;SDS011;7749;49.964;7.890;2023-03-04T15:26:16;11.77;;;6.37;;
15295;SDS011;7749;49.964;7.890;2023-03-04T15:28:44;8.30;;;5.93;;
15295;SDS011;7749;49.964;7.890;2023-03-04T15:31:15;11.33;;;6.30;;
15295;SDS011;7749;49.964;7.890;2023-03-04T15:33:45;10.40;;;6.17;;
15295;SDS011;7749;49.964;7.890;2023-03-04T15:36:21;11.03;;;6.17;;
15295;SDS011;7749;49.964;7.890;2023-03-04T15:38:50;12.33;;;6.47;;
15295;SDS011;7749;49.964;7.890;2023-03-04T15:41:24;10.60;;;6.77;;
15295;SDS011;7749;49.964;7.890;2023-03-04T15:43:53;7.27;;;6.27;;
15295;SDS011;7749;49.964;7.890;2023-03-04T15:46:23;8.03;;;5.80;;
15295;SDS011;7749;49.964;7.890;2023-03-04T15:48:51;8.73;;;6.17;;
15295;SDS011;7749;49.964;7.890;2023-03-04T15:51:20;9.00;;;6.70;;
15295;SDS011;7749;49.964;7.890;2023-03-04T15:53:52;11.20;;;6.60;;
15295;SDS011;7749;49.964;7.890;2023-03-04T15:56:29;9.37;;;6.43;;
15295;SDS011;7749;49.964;7.890;2023-03-04T16:01:36;8.97;;;5.93;;
15295;SDS011;7749;49.964;7.890;2023-03-04T16:04:04;8.87;;;5.60;;
15295;SDS011;7749;49.964;7.890;2023-03-04T16:06:32;9.47;;;6.17;;
15295;SDS011;7749;49.964;7.890;2023-03-04T16:08:59;12.67;;;6.47;;
15295;SDS011;7749;49.964;7.890;2023-03-04T16:11:28;11.23;;;6.90;;
15295;SDS011;7749;49.964;7.890;2023-03-04T16:13:58;11.60;;;6.40;;
15295;SDS011;7749;49.964;7.890;2023-03-04T16:16:26;9.10;;;6.83;;
15295;SDS011;7749;49.964;7.890;2023-03-04T16:18:54;7.20;;;5.90;;
15295;SDS011;7749;49.964;7.890;2023-03-04T16:21:21;7.73;;;6.50;;
15295;SDS011;7749;49.964;7.890;2023-03-04T16:23:49;8.07;;;6.23;;
15295;SDS011;7749;49.964;7.890;2023-03-04T16:26:19;9.50;;;6.70;;
15295;SDS011;7749;49.964;7.890;2023-03-04T16:28:51;10.70;;;7.10;;
15295;SDS011;7749;49.964;7.890;2023-03-04T16:31:19;11.80;;;7.43;;
15295;SDS011;7749;49.964;7.890;2023-03-04T16:33:48;9.90;;;6.67;;
15295;SDS011;7749;49.964;7.890;2023-03-04T16:36:21;18.57;;;7.20;;
15295;SDS011;7749;49.964;7.890;2023-03-04T16:38:50;14.80;;;9.90;;
15295;SDS011;7749;49.964;7.890;2023-03-04T16:41:26;22.77;;;14.33;;
15295;SDS011;7749;49.964;7.890;2023-03-04T16:43:59;13.07;;;8.43;;
15295;SDS011;7749;49.964;7.890;2023-03-04T16:46:41;9.60;;;7.60;;
15295;SDS011;7749;49.964;7.890;2023-03-04T16:49:09;11.47;;;7.97;;
15295;SDS011;7749;49.964;7.890;2023-03-04T16:51:41;12.63;;;7.90;;
15295;SDS011;7749;49.964;7.890;2023-03-04T16:54:16;16.37;;;9.93;;
15295;SDS011;7749;49.964;7.890;2023-03-04T16:56:50;11.03;;;7.70;;
15295;SDS011;7749;49.964;7.890;2023-03-04T16:59:18;12.13;;;6.80;;
15295;SDS011;7749;49.964;7.890;2023-03-04T17:01:46;8.03;;;6.30;;
15295;SDS011;7749;49.964;7.890;2023-03-04T17:04:15;9.27;;;6.30;;